createdAt,value
2023-05-04T00:00:08.511Z,102346.88
2023-05-04T00:02:35.040Z,102350.50
2023-05-04T00:05:01.739Z,102337.19
2023-05-04T00:07:28.102Z,102348.41
2023-05-04T00:09:54.407Z,102351.06
2023-05-04T00:12:20.785Z,102354.22
2023-05-04T00:14:47.032Z,102347.66
2023-05-04T00:17:13.314Z,102345.13
2023-05-04T00:19:41.943Z,102348.19
2023-05-04T00:22:08.329Z,102341.13
2023-05-04T00:24:34.712Z,102341.22
2023-05-04T00:27:02.137Z,102335.88
2023-05-04T00:29:28.898Z,102336.91
2023-05-04T00:31:55.317Z,102330.94
2023-05-04T00:34:21.724Z,102328.41
2023-05-04T00:36:48.135Z,102321.09
2023-05-04T00:39:14.431Z,102324.13
2023-05-04T00:41:41.007Z,102330.50
2023-05-04T00:44:07.732Z,102319.75
2023-05-04T00:46:34.305Z,102322.13
2023-05-04T00:49:02.046Z,102328.34
2023-05-04T00:51:29.843Z,102331.78
2023-05-04T00:53:57.062Z,102324.47
2023-05-04T00:56:24.928Z,102318.38
2023-05-04T00:58:57.564Z,102326.66
2023-05-04T01:01:25.119Z,102324.72
2023-05-04T01:03:53.506Z,102318.50
2023-05-04T01:06:58.599Z,102318.47
2023-05-04T01:09:37.396Z,102313.47
2023-05-04T01:12:09.729Z,102318.19
2023-05-04T01:14:36.549Z,102311.59
2023-05-04T01:17:07.589Z,102316.88
2023-05-04T01:19:34.384Z,102310.44
2023-05-04T01:22:00.814Z,102308.50
2023-05-04T01:24:28.529Z,102315.56
2023-05-04T01:27:08.668Z,102310.31
2023-05-04T01:29:45.163Z,102311.72
2023-05-04T01:32:14.892Z,102298.22
2023-05-04T01:34:41.782Z,102300.09
2023-05-04T01:37:08.714Z,102299.28
2023-05-04T01:39:35.018Z,102295.09
2023-05-04T01:42:02.214Z,102298.03
2023-05-04T01:44:28.627Z,102295.91
2023-05-04T01:46:54.974Z,102295.81
2023-05-04T01:49:21.315Z,102291.63
2023-05-04T01:51:49.311Z,102291.84
2023-05-04T01:54:15.714Z,102294.19
2023-05-04T01:56:42.142Z,102288.22
2023-05-04T01:59:08.427Z,102282.41
2023-05-04T02:01:34.731Z,102289.75
2023-05-04T02:04:01.245Z,102292.31
2023-05-04T02:06:27.681Z,102289.75
2023-05-04T02:08:53.990Z,102286.91
2023-05-04T02:11:20.918Z,102289.56
2023-05-04T02:13:47.207Z,102291.66
2023-05-04T02:16:13.590Z,102291.47
2023-05-04T02:18:39.855Z,102290.44
2023-05-04T02:21:06.478Z,102289.97
2023-05-04T02:23:32.756Z,102286.56
2023-05-04T02:25:59.048Z,102291.38
2023-05-04T02:28:25.346Z,102286.06
2023-05-04T02:30:51.629Z,102286.72
2023-05-04T02:33:17.953Z,102283.28
2023-05-04T02:35:44.236Z,102287.94
2023-05-04T02:38:10.661Z,102289.31
2023-05-04T02:40:36.965Z,102284.06
2023-05-04T02:43:03.263Z,102282.31
2023-05-04T02:45:29.582Z,102281.81
2023-05-04T02:47:55.900Z,102278.66
2023-05-04T02:50:22.318Z,102277.91
2023-05-04T02:52:48.596Z,102280.38
2023-05-04T02:55:15.576Z,102284.69
2023-05-04T02:57:41.885Z,102288.53
2023-05-04T03:00:09.019Z,102279.03
2023-05-04T03:02:35.387Z,102283.16
2023-05-04T03:05:01.830Z,102279.88
2023-05-04T03:07:28.297Z,102273.91
2023-05-04T03:09:54.596Z,102276.16
2023-05-04T03:12:20.940Z,102267.34
2023-05-04T03:14:47.219Z,102272.84
2023-05-04T03:17:13.511Z,102269.72
2023-05-04T03:19:39.797Z,102269.13
2023-05-04T03:22:06.089Z,102266.38
2023-05-04T03:24:32.442Z,102258.03
2023-05-04T03:26:58.764Z,102262.34
2023-05-04T03:29:26.188Z,102263.81
2023-05-04T03:31:52.488Z,102261.94
2023-05-04T03:34:21.341Z,102259.41
2023-05-04T03:36:48.843Z,102263.09
2023-05-04T03:39:17.006Z,102262.34
2023-05-04T03:41:44.001Z,102254.53
2023-05-04T03:44:10.497Z,102255.97
2023-05-04T03:46:36.866Z,102263.25
2023-05-04T03:49:04.514Z,102261.88
2023-05-04T03:51:31.041Z,102265.56
2023-05-04T03:53:57.460Z,102273.00
2023-05-04T03:56:23.789Z,102272.50
2023-05-04T03:58:50.061Z,102272.06
2023-05-04T04:01:16.352Z,102274.25
2023-05-04T04:03:42.754Z,102275.47
2023-05-04T04:06:10.381Z,102274.72
2023-05-04T04:08:37.125Z,102273.66
2023-05-04T04:11:03.474Z,102276.59
2023-05-04T04:13:30.071Z,102269.00
2023-05-04T04:15:56.602Z,102277.06
2023-05-04T04:18:24.150Z,102276.31
2023-05-04T04:20:50.993Z,102274.53
2023-05-04T04:23:21.582Z,102275.09
2023-05-04T04:25:47.932Z,102273.84
2023-05-04T04:28:14.637Z,102272.16
2023-05-04T04:30:41.544Z,102279.94
2023-05-04T04:33:08.502Z,102286.09
2023-05-04T04:35:34.975Z,102286.00
2023-05-04T04:38:03.559Z,102284.47
2023-05-04T04:40:30.434Z,102284.81
2023-05-04T04:42:56.970Z,102282.84
2023-05-04T04:45:23.557Z,102287.38
2023-05-04T04:47:49.893Z,102286.38
2023-05-04T04:50:16.370Z,102283.88
2023-05-04T04:52:42.753Z,102286.28
2023-05-04T04:55:09.369Z,102271.69
2023-05-04T04:57:35.630Z,102264.63
2023-05-04T05:00:02.173Z,102254.88
2023-05-04T05:02:28.651Z,102245.34
2023-05-04T05:04:55.396Z,102247.78
2023-05-04T05:07:21.702Z,102244.97
2023-05-04T05:09:48.082Z,102236.41
2023-05-04T05:12:14.427Z,102231.28
2023-05-04T05:14:40.696Z,102223.44
2023-05-04T05:17:07.356Z,102219.97
2023-05-04T05:19:37.089Z,102220.94
2023-05-04T05:22:04.626Z,102228.88
2023-05-04T05:24:31.291Z,102230.94
2023-05-04T05:26:58.136Z,102226.06
2023-05-04T05:29:25.266Z,102227.66
2023-05-04T05:31:51.698Z,102222.22
2023-05-04T05:34:18.120Z,102227.81
2023-05-04T05:36:44.618Z,102226.31
2023-05-04T05:39:14.194Z,102230.97
2023-05-04T05:41:40.458Z,102229.59
2023-05-04T05:44:06.695Z,102224.72
2023-05-04T05:46:33.034Z,102219.22
2023-05-04T05:48:59.660Z,102220.09
2023-05-04T05:51:25.962Z,102210.75
2023-05-04T05:53:52.215Z,102210.13
2023-05-04T05:56:18.524Z,102206.66
2023-05-04T05:58:44.853Z,102202.66
2023-05-04T06:01:11.260Z,102197.78
2023-05-04T06:03:37.773Z,102203.00
2023-05-04T06:06:04.222Z,102210.28
2023-05-04T06:08:31.057Z,102212.97
2023-05-04T06:10:57.332Z,102207.09
2023-05-04T06:13:23.955Z,102209.00
2023-05-04T06:15:51.594Z,102208.31
2023-05-04T06:18:17.994Z,102211.19
2023-05-04T06:20:44.279Z,102202.56
2023-05-04T06:23:10.704Z,102202.69
2023-05-04T06:25:37.068Z,102206.41
2023-05-04T06:28:03.839Z,102196.94
2023-05-04T06:30:30.171Z,102196.91
2023-05-04T06:32:56.541Z,102189.13
2023-05-04T06:35:22.988Z,102197.09
2023-05-04T06:40:20.598Z,102186.84
2023-05-04T06:42:46.984Z,102188.72
2023-05-04T06:45:13.315Z,102198.41
2023-05-04T06:47:39.677Z,102194.09
2023-05-04T06:50:10.611Z,102190.56
2023-05-04T06:52:43.498Z,102195.63
2023-05-04T06:55:09.998Z,102197.59
2023-05-04T06:57:36.412Z,102197.59
2023-05-04T07:00:04.434Z,102188.88
2023-05-04T07:02:31.088Z,102182.88
2023-05-04T07:04:57.701Z,102172.47
2023-05-04T07:07:24.069Z,102174.22
2023-05-04T07:09:50.408Z,102169.03
2023-05-04T07:12:17.984Z,102168.13
2023-05-04T07:14:44.401Z,102161.19
2023-05-04T07:17:10.734Z,102171.63
2023-05-04T07:19:37.084Z,102163.81
2023-05-04T07:22:03.587Z,102162.09
2023-05-04T07:24:30.837Z,102168.19
2023-05-04T07:26:57.148Z,102165.56
2023-05-04T07:29:23.684Z,102156.00
2023-05-04T07:31:50.045Z,102164.69
2023-05-04T07:34:16.401Z,102160.34
2023-05-04T07:36:43.530Z,102151.59
2023-05-04T07:39:09.950Z,102146.41
2023-05-04T07:41:36.919Z,102147.28
2023-05-04T07:44:05.518Z,102143.78
2023-05-04T07:46:32.011Z,102148.13
2023-05-04T07:48:58.456Z,102147.25
2023-05-04T07:51:24.932Z,102140.28
2023-05-04T07:53:51.513Z,102139.38
2023-05-04T07:56:17.849Z,102140.28
2023-05-04T07:58:44.179Z,102147.25
2023-05-04T08:01:10.793Z,102139.44
2023-05-04T08:03:37.142Z,102147.25
2023-05-04T08:06:03.578Z,102133.34
2023-05-04T08:08:30.047Z,102141.19
2023-05-04T08:11:02.189Z,102143.78
2023-05-04T08:13:34.672Z,102131.53
2023-05-04T08:16:01.576Z,102136.78
2023-05-04T08:18:30.946Z,102126.28
2023-05-04T08:20:57.221Z,102128.00
2023-05-04T08:23:24.070Z,102122.66
2023-05-04T08:25:50.393Z,102127.06
2023-05-04T08:28:17.377Z,102120.94
2023-05-04T08:30:43.856Z,102118.16
2023-05-04T08:33:10.156Z,102113.75
2023-05-04T08:35:37.773Z,102111.13
2023-05-04T08:38:04.421Z,102111.00
2023-05-04T08:40:30.943Z,102110.00
2023-05-04T08:42:57.460Z,102104.03
2023-05-04T08:45:24.733Z,102101.44
2023-05-04T08:47:51.408Z,102090.06
2023-05-04T08:50:18.021Z,102089.28
2023-05-04T08:52:48.792Z,102090.69
2023-05-04T08:55:17.020Z,102082.78
2023-05-04T08:57:44.437Z,102080.94
2023-05-04T09:00:16.770Z,102079.28
2023-05-04T09:02:44.099Z,102073.13
2023-05-04T09:05:11.377Z,102078.63
2023-05-04T09:07:37.824Z,102083.22
2023-05-04T09:10:04.537Z,102079.69
2023-05-04T09:12:31.352Z,102080.63
2023-05-04T09:14:58.345Z,102084.88
2023-05-04T09:17:29.205Z,102080.38
2023-05-04T09:20:03.257Z,102081.16
2023-05-04T09:22:30.692Z,102078.66
2023-05-04T09:25:11.223Z,102083.09
2023-05-04T09:27:39.156Z,102083.06
2023-05-04T09:30:06.090Z,102076.88
2023-05-04T09:32:37.056Z,102075.91
2023-05-04T09:35:04.956Z,102068.84
2023-05-04T09:37:31.707Z,102064.56
2023-05-04T09:39:59.146Z,102065.22
2023-05-04T09:42:28.787Z,102069.28
2023-05-04T09:45:08.825Z,102068.59
2023-05-04T09:47:41.602Z,102053.50
2023-05-04T09:50:20.910Z,102059.22
2023-05-04T09:52:48.341Z,102052.63
2023-05-04T09:55:16.292Z,102048.00
2023-05-04T09:57:44.168Z,102052.47
2023-05-04T10:00:12.938Z,102045.19
2023-05-04T10:02:40.602Z,102037.34
2023-05-04T10:05:08.250Z,102039.69
2023-05-04T10:07:35.577Z,102029.66
2023-05-04T10:10:02.768Z,102037.56
2023-05-04T10:12:29.221Z,102027.13
2023-05-04T10:14:55.542Z,102032.41
2023-05-04T10:17:35.868Z,102033.59
2023-05-04T10:20:14.264Z,102030.13
2023-05-04T10:23:03.445Z,102018.69
2023-05-04T10:26:06.025Z,102026.63
2023-05-04T10:28:59.992Z,102023.25
2023-05-04T10:31:37.499Z,102013.44
2023-05-04T10:34:03.917Z,102008.75
2023-05-04T10:36:41.763Z,102004.25
2023-05-04T10:39:37.668Z,102009.25
2023-05-04T10:42:08.343Z,102006.41
2023-05-04T10:44:55.725Z,102005.19
2023-05-04T10:47:30.486Z,102001.84
2023-05-04T10:50:05.255Z,101993.75
2023-05-04T10:52:51.901Z,101993.66
2023-05-04T10:55:21.816Z,101983.94
2023-05-04T10:57:52.613Z,101990.16
2023-05-04T11:00:19.635Z,101983.31
2023-05-04T11:02:47.538Z,101985.16
2023-05-04T11:05:18.159Z,101974.56
2023-05-04T11:07:45.162Z,101970.41
2023-05-04T11:10:25.535Z,101973.53
2023-05-04T11:12:52.729Z,101968.13
2023-05-04T11:15:21.417Z,101969.38
2023-05-04T11:17:52.637Z,101969.94
2023-05-04T11:20:23.515Z,101954.16
2023-05-04T11:22:50.677Z,101953.97
2023-05-04T11:25:17.611Z,101950.88
2023-05-04T11:27:44.178Z,101948.69
2023-05-04T11:30:10.952Z,101952.78
2023-05-04T11:32:50.135Z,101943.53
2023-05-04T11:35:18.618Z,101940.59
2023-05-04T11:37:46.133Z,101942.16
2023-05-04T11:40:14.153Z,101934.06
2023-05-04T11:42:42.572Z,101932.53
2023-05-04T11:45:14.317Z,101935.03
2023-05-04T11:47:41.032Z,101929.84
2023-05-04T11:50:10.571Z,101931.38
2023-05-04T11:52:40.533Z,101933.09
2023-05-04T11:55:11.991Z,101929.22
2023-05-04T11:57:38.704Z,101929.38
2023-05-04T12:00:06.072Z,101927.25
2023-05-04T12:02:33.442Z,101918.47
2023-05-04T12:05:00.372Z,101912.84
2023-05-04T12:07:27.519Z,101908.00
2023-05-04T12:09:53.826Z,101916.03
2023-05-04T12:12:21.334Z,101906.81
2023-05-04T12:14:56.683Z,101912.06
2023-05-04T12:17:24.172Z,101912.78
2023-05-04T12:19:51.868Z,101912.72
2023-05-04T12:22:25.393Z,101910.91
2023-05-04T12:24:52.780Z,101910.16
2023-05-04T12:27:19.240Z,101901.78
2023-05-04T12:29:45.794Z,101905.56
2023-05-04T12:32:12.174Z,101891.41
2023-05-04T12:34:38.785Z,101894.75
2023-05-04T12:37:05.111Z,101889.56
2023-05-04T12:39:32.724Z,101884.63
2023-05-04T12:41:59.591Z,101894.38
2023-05-04T12:44:26.056Z,101890.09
2023-05-04T12:46:52.756Z,101875.94
2023-05-04T12:49:19.042Z,101875.03
2023-05-04T12:51:45.744Z,101879.66
2023-05-04T12:54:12.324Z,101876.13
2023-05-04T12:56:39.659Z,101878.03
2023-05-04T12:59:05.997Z,101872.88
2023-05-04T13:01:32.327Z,101865.88
2023-05-04T13:03:58.770Z,101867.06
2023-05-04T13:06:25.368Z,101867.16
2023-05-04T13:08:51.687Z,101862.53
2023-05-04T13:11:19.862Z,101855.13
2023-05-04T13:13:46.303Z,101865.66
2023-05-04T13:16:13.258Z,101858.81
2023-05-04T13:18:39.901Z,101855.50
2023-05-04T13:21:06.296Z,101858.84
2023-05-04T13:23:32.689Z,101854.81
2023-05-04T13:25:59.052Z,101848.19
2023-05-04T13:28:25.617Z,101839.78
2023-05-04T13:30:52.068Z,101837.09
2023-05-04T13:33:28.655Z,101843.19
2023-05-04T13:35:57.568Z,101843.81
2023-05-04T13:38:24.394Z,101835.59
2023-05-04T13:40:50.834Z,101824.88
2023-05-04T13:43:17.175Z,101827.63
2023-05-04T13:45:43.449Z,101812.03
2023-05-04T13:48:09.826Z,101807.69
2023-05-04T13:50:36.220Z,101808.28
2023-05-04T13:53:02.791Z,101805.16
2023-05-04T13:55:29.138Z,101801.16
2023-05-04T13:57:55.545Z,101801.41
2023-05-04T14:00:22.185Z,101802.88
2023-05-04T14:02:48.656Z,101800.97
2023-05-04T14:05:15.149Z,101797.91
2023-05-04T14:07:41.839Z,101783.06
2023-05-04T14:10:08.548Z,101784.56
2023-05-04T14:12:35.017Z,101770.63
2023-05-04T14:15:01.464Z,101766.47
2023-05-04T14:17:27.784Z,101759.03
2023-05-04T14:19:54.082Z,101767.44
2023-05-04T14:22:20.373Z,101767.53
2023-05-04T14:24:46.700Z,101772.53
2023-05-04T14:27:12.998Z,101770.66
2023-05-04T14:29:39.422Z,101762.38
2023-05-04T14:32:05.869Z,101764.28
2023-05-04T14:34:32.632Z,101755.88
2023-05-04T14:36:58.940Z,101761.19
2023-05-04T14:39:25.228Z,101761.03
2023-05-04T14:41:52.754Z,101752.34
2023-05-04T14:44:20.093Z,101762.53
2023-05-04T14:46:46.385Z,101760.06
2023-05-04T14:49:21.426Z,101747.38
2023-05-04T14:51:51.394Z,101747.06
2023-05-04T14:54:17.654Z,101749.53
2023-05-04T14:56:44.050Z,101743.66
2023-05-04T14:59:10.328Z,101741.44
2023-05-04T15:01:36.579Z,101733.41
2023-05-04T15:04:02.925Z,101742.22
2023-05-04T15:06:32.459Z,101735.19
2023-05-04T15:08:59.029Z,101744.22
2023-05-04T15:11:25.336Z,101744.22
2023-05-04T15:13:51.669Z,101741.91
2023-05-04T15:16:18.923Z,101749.69
2023-05-04T15:18:45.389Z,101744.47
2023-05-04T15:21:11.842Z,101747.75
2023-05-04T15:23:38.209Z,101742.69
2023-05-04T15:26:04.617Z,101746.28
2023-05-04T15:28:30.900Z,101747.97
2023-05-04T15:30:57.555Z,101747.56
2023-05-04T15:33:23.850Z,101741.63
2023-05-04T15:35:50.436Z,101737.28
2023-05-04T15:38:36.106Z,101745.09
2023-05-04T15:41:05.309Z,101741.66
2023-05-04T15:43:35.081Z,101733.19
2023-05-04T15:46:01.462Z,101734.03
2023-05-04T15:48:27.997Z,101729.66
2023-05-04T15:50:54.701Z,101723.81
2023-05-04T15:53:21.034Z,101726.22
2023-05-04T15:55:48.025Z,101729.53
2023-05-04T15:58:14.319Z,101719.22
2023-05-04T16:00:40.799Z,101717.56
2023-05-04T16:03:08.290Z,101713.28
2023-05-04T16:05:34.838Z,101720.38
2023-05-04T16:08:01.711Z,101707.97
2023-05-04T16:10:28.094Z,101712.69
2023-05-04T16:12:54.534Z,101716.22
2023-05-04T16:15:22.349Z,101708.19
2023-05-04T16:17:48.675Z,101701.19
2023-05-04T16:20:14.991Z,101701.13
2023-05-04T16:22:41.354Z,101698.06
2023-05-04T16:25:09.558Z,101701.06
2023-05-04T16:27:37.493Z,101699.16
2023-05-04T16:30:04.280Z,101699.25
2023-05-04T16:32:31.145Z,101696.66
2023-05-04T16:34:57.426Z,101696.72
2023-05-04T16:37:23.742Z,101687.16
2023-05-04T16:39:50.488Z,101687.16
2023-05-04T16:42:16.825Z,101691.06
2023-05-04T16:44:43.119Z,101690.31
2023-05-04T16:47:09.469Z,101696.22
2023-05-04T16:49:35.769Z,101689.53
2023-05-04T16:52:04.873Z,101680.06
2023-05-04T16:54:31.292Z,101679.19
2023-05-04T16:56:57.576Z,101678.19
2023-05-04T16:59:24.724Z,101674.88
2023-05-04T17:01:51.204Z,101681.09
2023-05-04T17:04:17.545Z,101672.44
2023-05-04T17:06:43.823Z,101681.13
2023-05-04T17:09:10.526Z,101675.94
2023-05-04T17:11:36.925Z,101678.69
2023-05-04T17:14:03.786Z,101677.94
2023-05-04T17:16:30.388Z,101675.41
2023-05-04T17:18:56.763Z,101678.91
2023-05-04T17:21:23.132Z,101680.72
2023-05-04T17:23:49.484Z,101677.34
2023-05-04T17:26:15.820Z,101681.78
2023-05-04T17:28:42.232Z,101682.91
2023-05-04T17:31:14.493Z,101688.22
2023-05-04T17:33:41.077Z,101684.81
2023-05-04T17:36:07.865Z,101690.06
2023-05-04T17:38:34.303Z,101695.28
2023-05-04T17:41:00.670Z,101697.94
2023-05-04T17:43:26.977Z,101696.28
2023-05-04T17:45:55.533Z,101693.69
2023-05-04T17:48:23.768Z,101691.94
2023-05-04T17:50:50.277Z,101691.16
2023-05-04T17:53:16.564Z,101694.66
2023-05-04T17:55:42.911Z,101692.94
2023-05-04T17:58:09.277Z,101697.31
2023-05-04T18:00:36.848Z,101686.94
2023-05-04T18:03:03.266Z,101689.56
2023-05-04T18:05:29.817Z,101697.41
2023-05-04T18:07:56.101Z,101699.06
2023-05-04T18:10:22.575Z,101696.50
2023-05-04T18:12:48.974Z,101693.13
2023-05-04T18:15:17.057Z,101695.72
2023-05-04T18:17:44.013Z,101690.47
2023-05-04T18:20:12.839Z,101699.22
2023-05-04T18:22:39.182Z,101695.75
2023-05-04T18:25:06.154Z,101700.13
2023-05-04T18:27:33.888Z,101698.44
2023-05-04T18:30:04.801Z,101701.06
2023-05-04T18:32:31.258Z,101695.84
2023-05-04T18:35:01.686Z,101707.19
2023-05-04T18:37:31.220Z,101700.25
2023-05-04T18:39:58.232Z,101706.31
2023-05-04T18:42:24.922Z,101706.31
2023-05-04T18:44:52.447Z,101710.69
2023-05-04T18:47:18.751Z,101714.19
2023-05-04T18:49:49.479Z,101713.31
2023-05-04T18:52:15.823Z,101719.41
2023-05-04T18:54:42.102Z,101718.56
2023-05-04T18:57:10.241Z,101723.78
2023-05-04T18:59:36.562Z,101720.31
2023-05-04T19:02:02.988Z,101722.03
2023-05-04T19:04:29.645Z,101713.38
2023-05-04T19:06:57.725Z,101711.63
2023-05-04T19:09:24.040Z,101714.25
2023-05-04T19:11:50.379Z,101718.56
2023-05-04T19:14:17.100Z,101721.16
2023-05-04T19:16:43.471Z,101732.47
2023-05-04T19:19:09.819Z,101719.44
2023-05-04T19:21:36.326Z,101721.16
2023-05-04T19:24:02.711Z,101721.16
2023-05-04T19:26:29.043Z,101733.34
2023-05-04T19:28:55.365Z,101728.97
2023-05-04T19:31:22.367Z,101721.16
2023-05-04T19:33:49.513Z,101725.50
2023-05-04T19:36:16.886Z,101725.50
2023-05-04T19:38:43.377Z,101720.28
2023-05-04T19:41:09.880Z,101725.47
2023-05-04T19:43:38.189Z,101719.41
2023-05-04T19:46:04.507Z,101726.34
2023-05-04T19:48:30.780Z,101718.50
2023-05-04T19:50:57.380Z,101722.00
2023-05-04T19:53:23.646Z,101717.66
2023-05-04T19:55:50.065Z,101720.25
2023-05-04T19:58:16.631Z,101722.00
2023-05-04T20:00:42.963Z,101724.59
2023-05-04T20:03:10.281Z,101714.19
2023-05-04T20:05:38.253Z,101720.22
2023-05-04T20:08:05.270Z,101720.19
2023-05-04T20:10:31.903Z,101720.19
2023-05-04T20:12:58.250Z,101721.03
2023-05-04T20:15:24.658Z,101721.06
2023-05-04T20:17:51.289Z,101721.94
2023-05-04T20:20:20.181Z,101721.06
2023-05-04T20:22:47.855Z,101719.34
2023-05-04T20:25:14.416Z,101713.25
2023-05-04T20:27:40.830Z,101713.28
2023-05-04T20:30:07.779Z,101718.47
2023-05-04T20:32:34.353Z,101717.59
2023-05-04T20:35:02.049Z,101717.59
2023-05-04T20:37:28.336Z,101718.50
2023-05-04T20:39:54.589Z,101718.47
2023-05-04T20:42:21.445Z,101716.72
2023-05-04T20:44:47.772Z,101719.34
2023-05-04T20:47:14.259Z,101720.25
2023-05-04T20:49:40.728Z,101716.75
2023-05-04T20:52:07.040Z,101718.47
2023-05-04T20:54:33.332Z,101714.19
2023-05-04T20:56:59.641Z,101715.03
2023-05-04T20:59:26.100Z,101717.63
2023-05-04T21:01:52.426Z,101721.13
2023-05-04T21:04:18.762Z,101719.41
2023-05-04T21:06:47.467Z,101713.31
2023-05-04T21:09:15.363Z,101717.66
2023-05-04T21:11:41.642Z,101715.06
2023-05-04T21:14:07.974Z,101715.06
2023-05-04T21:16:34.360Z,101711.59
2023-05-04T21:19:00.700Z,101707.25
2023-05-04T21:21:27.065Z,101707.25
2023-05-04T21:23:53.347Z,101715.06
2023-05-04T21:26:19.814Z,101709.84
2023-05-04T21:28:46.401Z,101703.75
2023-05-04T21:31:12.746Z,101702.03
2023-05-04T21:33:39.120Z,101702.03
2023-05-04T21:36:15.149Z,101695.97
2023-05-04T21:38:42.521Z,101699.44
2023-05-04T21:41:15.494Z,101697.69
2023-05-04T21:43:42.744Z,101704.63
2023-05-04T21:46:09.101Z,101702.94
2023-05-04T21:48:35.964Z,101705.50
2023-05-04T21:51:02.449Z,101701.16
2023-05-04T21:53:33.476Z,101702.88
2023-05-04T21:56:00.753Z,101698.56
2023-05-04T21:58:27.169Z,101691.59
2023-05-04T22:00:54.661Z,101689.88
2023-05-04T22:03:21.384Z,101686.38
2023-05-04T22:05:54.405Z,101682.91
2023-05-04T22:08:21.907Z,101681.19
2023-05-04T22:10:52.481Z,101690.69
2023-05-04T22:13:19.281Z,101688.13
2023-05-04T22:15:50.034Z,101688.97
2023-05-04T22:18:17.108Z,101686.38
2023-05-04T22:20:43.474Z,101685.50
2023-05-04T22:23:10.400Z,101686.38
2023-05-04T22:25:36.817Z,101691.56
2023-05-04T22:28:03.452Z,101688.94
2023-05-04T22:30:29.808Z,101686.31
2023-05-04T22:32:56.255Z,101695.00
2023-05-04T22:35:23.060Z,101691.50
2023-05-04T22:37:52.749Z,101694.09
2023-05-04T22:40:19.120Z,101697.56
2023-05-04T22:42:45.651Z,101703.63
2023-05-04T22:45:14.196Z,101699.25
2023-05-04T22:47:41.179Z,101700.09
2023-05-04T22:50:10.948Z,101698.34
2023-05-04T22:52:38.404Z,101701.84
2023-05-04T22:55:05.657Z,101707.03
2023-05-04T22:57:32.095Z,101705.22
2023-05-04T22:59:58.427Z,101709.50
2023-05-04T23:02:24.871Z,101698.25
2023-05-04T23:04:51.233Z,101699.06
2023-05-04T23:07:17.598Z,101703.38
2023-05-04T23:09:45.550Z,101693.84
2023-05-04T23:12:12.753Z,101699.97
2023-05-04T23:14:39.290Z,101702.53
2023-05-04T23:17:05.605Z,101702.47
2023-05-04T23:19:32.544Z,101708.53
2023-05-04T23:21:58.968Z,101698.97
2023-05-04T23:24:25.310Z,101702.41
2023-05-04T23:26:52.158Z,101702.38
2023-05-04T23:29:19.401Z,101698.00
2023-05-04T23:31:46.169Z,101691.09
2023-05-04T23:34:13.305Z,101690.16
2023-05-04T23:36:39.678Z,101688.47
2023-05-04T23:39:06.337Z,101686.72
2023-05-04T23:41:32.690Z,101696.22
2023-05-04T23:43:59.333Z,101690.97
2023-05-04T23:46:25.638Z,101694.47
2023-05-04T23:48:51.908Z,101688.41
2023-05-04T23:51:18.277Z,101688.41
2023-05-04T23:53:44.737Z,101688.41
2023-05-04T23:56:12.338Z,101680.59
2023-05-04T23:58:38.629Z,101684.06
